sensor_id;sensor_type;location;lat;lon;timestamp;P1;durP1;ratioP1;P2;durP2;ratioP2
4472;SDS011;2249;42.626;23.320;2024-02-15T00:00:37;13.30;;;8.03;;
4472;SDS011;2249;42.626;23.320;2024-02-15T00:03:05;8.90;;;8.00;;
4472;SDS011;2249;42.626;23.320;2024-02-15T00:05:32;19.07;;;8.30;;
4472;SDS011;2249;42.626;23.320;2024-02-15T00:07:59;11.43;;;8.20;;
4472;SDS011;2249;42.626;23.320;2024-02-15T00:10:26;11.00;;;7.70;;
4472;SDS011;2249;42.626;23.320;2024-02-15T00:12:52;16.30;;;7.90;;
4472;SDS011;2249;42.626;23.320;2024-02-15T00:15:19;11.20;;;8.03;;
4472;SDS011;2249;42.626;23.320;2024-02-15T00:17:44;9.83;;;7.20;;
4472;SDS011;2249;42.626;23.320;2024-02-15T00:20:13;11.77;;;8.70;;
4472;SDS011;2249;42.626;23.320;2024-02-15T00:22:39;12.80;;;8.00;;
4472;SDS011;2249;42.626;23.320;2024-02-15T00:25:07;9.47;;;7.57;;
4472;SDS011;2249;42.626;23.320;2024-02-15T00:27:34;11.00;;;8.30;;
4472;SDS011;2249;42.626;23.320;2024-02-15T00:30:01;11.33;;;7.83;;
4472;SDS011;2249;42.626;23.320;2024-02-15T00:32:27;12.13;;;8.50;;
4472;SDS011;2249;42.626;23.320;2024-02-15T00:34:54;10.80;;;8.37;;
4472;SDS011;2249;42.626;23.320;2024-02-15T00:37:22;10.87;;;7.93;;
4472;SDS011;2249;42.626;23.320;2024-02-15T00:39:49;11.87;;;7.40;;
4472;SDS011;2249;42.626;23.320;2024-02-15T00:42:15;9.67;;;7.50;;
4472;SDS011;2249;42.626;23.320;2024-02-15T00:44:42;11.23;;;7.60;;
4472;SDS011;2249;42.626;23.320;2024-02-15T00:47:09;9.90;;;7.93;;
4472;SDS011;2249;42.626;23.320;2024-02-15T00:49:37;10.93;;;7.70;;
4472;SDS011;2249;42.626;23.320;2024-02-15T00:52:04;13.70;;;8.10;;
4472;SDS011;2249;42.626;23.320;2024-02-15T00:54:32;10.33;;;7.43;;
4472;SDS011;2249;42.626;23.320;2024-02-15T00:56:58;13.33;;;7.43;;
4472;SDS011;2249;42.626;23.320;2024-02-15T00:59:24;10.10;;;7.83;;
4472;SDS011;2249;42.626;23.320;2024-02-15T01:01:51;11.03;;;7.73;;
4472;SDS011;2249;42.626;23.320;2024-02-15T01:04:18;9.83;;;7.67;;
4472;SDS011;2249;42.626;23.320;2024-02-15T01:06:44;13.53;;;7.77;;
4472;SDS011;2249;42.626;23.320;2024-02-15T01:09:11;9.87;;;7.53;;
4472;SDS011;2249;42.626;23.320;2024-02-15T01:11:39;14.40;;;9.03;;
4472;SDS011;2249;42.626;23.320;2024-02-15T01:14:06;11.17;;;7.80;;
4472;SDS011;2249;42.626;23.320;2024-02-15T01:16:35;9.63;;;8.37;;
4472;SDS011;2249;42.626;23.320;2024-02-15T01:19:01;11.30;;;8.50;;
4472;SDS011;2249;42.626;23.320;2024-02-15T01:21:28;11.97;;;6.70;;
4472;SDS011;2249;42.626;23.320;2024-02-15T01:23:54;15.30;;;8.90;;
4472;SDS011;2249;42.626;23.320;2024-02-15T01:26:21;10.40;;;6.90;;
4472;SDS011;2249;42.626;23.320;2024-02-15T01:28:50;11.80;;;7.67;;
4472;SDS011;2249;42.626;23.320;2024-02-15T01:31:16;10.67;;;7.40;;
4472;SDS011;2249;42.626;23.320;2024-02-15T01:33:43;13.70;;;8.67;;
4472;SDS011;2249;42.626;23.320;2024-02-15T01:36:13;10.03;;;7.20;;
4472;SDS011;2249;42.626;23.320;2024-02-15T01:38:40;14.43;;;8.40;;
4472;SDS011;2249;42.626;23.320;2024-02-15T01:41:07;8.87;;;7.30;;
4472;SDS011;2249;42.626;23.320;2024-02-15T01:43:33;12.23;;;8.73;;
4472;SDS011;2249;42.626;23.320;2024-02-15T01:46:01;10.27;;;7.90;;
4472;SDS011;2249;42.626;23.320;2024-02-15T01:48:31;14.43;;;8.70;;
4472;SDS011;2249;42.626;23.320;2024-02-15T01:50:58;11.03;;;7.80;;
4472;SDS011;2249;42.626;23.320;2024-02-15T01:53:25;12.57;;;8.20;;
4472;SDS011;2249;42.626;23.320;2024-02-15T01:55:52;9.80;;;8.03;;
4472;SDS011;2249;42.626;23.320;2024-02-15T01:58:22;9.90;;;7.20;;
4472;SDS011;2249;42.626;23.320;2024-02-15T02:00:49;13.47;;;8.63;;
4472;SDS011;2249;42.626;23.320;2024-02-15T02:03:17;15.17;;;8.23;;
4472;SDS011;2249;42.626;23.320;2024-02-15T02:05:44;10.47;;;8.47;;
4472;SDS011;2249;42.626;23.320;2024-02-15T02:08:10;13.60;;;9.20;;
4472;SDS011;2249;42.626;23.320;2024-02-15T02:10:36;14.10;;;9.40;;
4472;SDS011;2249;42.626;23.320;2024-02-15T02:13:03;13.93;;;8.80;;
4472;SDS011;2249;42.626;23.320;2024-02-15T02:15:31;11.53;;;8.87;;
4472;SDS011;2249;42.626;23.320;2024-02-15T02:17:57;12.27;;;9.40;;
4472;SDS011;2249;42.626;23.320;2024-02-15T02:20:26;11.17;;;8.70;;
4472;SDS011;2249;42.626;23.320;2024-02-15T02:22:53;13.10;;;8.27;;
4472;SDS011;2249;42.626;23.320;2024-02-15T02:25:22;10.93;;;8.30;;
4472;SDS011;2249;42.626;23.320;2024-02-15T02:27:51;11.23;;;8.53;;
4472;SDS011;2249;42.626;23.320;2024-02-15T02:30:18;12.20;;;7.43;;
4472;SDS011;2249;42.626;23.320;2024-02-15T02:32:47;9.30;;;7.17;;
4472;SDS011;2249;42.626;23.320;2024-02-15T02:35:13;13.53;;;8.60;;
4472;SDS011;2249;42.626;23.320;2024-02-15T02:37:41;10.50;;;7.50;;
4472;SDS011;2249;42.626;23.320;2024-02-15T02:40:08;13.50;;;8.00;;
4472;SDS011;2249;42.626;23.320;2024-02-15T02:42:36;11.87;;;8.20;;
4472;SDS011;2249;42.626;23.320;2024-02-15T02:45:03;13.67;;;9.30;;
4472;SDS011;2249;42.626;23.320;2024-02-15T02:47:30;13.57;;;8.30;;
4472;SDS011;2249;42.626;23.320;2024-02-15T02:49:56;10.73;;;8.30;;
4472;SDS011;2249;42.626;23.320;2024-02-15T02:52:23;11.63;;;7.80;;
4472;SDS011;2249;42.626;23.320;2024-02-15T02:54:49;12.30;;;8.23;;
4472;SDS011;2249;42.626;23.320;2024-02-15T02:57:16;12.47;;;8.00;;
4472;SDS011;2249;42.626;23.320;2024-02-15T02:59:45;10.20;;;6.97;;
4472;SDS011;2249;42.626;23.320;2024-02-15T03:02:12;10.80;;;7.73;;
4472;SDS011;2249;42.626;23.320;2024-02-15T03:04:38;10.20;;;7.40;;
4472;SDS011;2249;42.626;23.320;2024-02-15T03:07:06;9.73;;;7.97;;
4472;SDS011;2249;42.626;23.320;2024-02-15T03:09:32;12.40;;;8.33;;
4472;SDS011;2249;42.626;23.320;2024-02-15T03:11:59;12.33;;;8.10;;
4472;SDS011;2249;42.626;23.320;2024-02-15T03:14:26;10.33;;;7.93;;
4472;SDS011;2249;42.626;23.320;2024-02-15T03:16:56;10.37;;;7.50;;
4472;SDS011;2249;42.626;23.320;2024-02-15T03:19:23;13.10;;;8.17;;
4472;SDS011;2249;42.626;23.320;2024-02-15T03:21:50;10.63;;;8.37;;
4472;SDS011;2249;42.626;23.320;2024-02-15T03:24:18;12.13;;;8.07;;
4472;SDS011;2249;42.626;23.320;2024-02-15T03:26:44;11.03;;;8.47;;
4472;SDS011;2249;42.626;23.320;2024-02-15T03:29:11;9.83;;;8.57;;
4472;SDS011;2249;42.626;23.320;2024-02-15T03:31:37;12.43;;;7.50;;
4472;SDS011;2249;42.626;23.320;2024-02-15T03:34:05;11.20;;;9.10;;
4472;SDS011;2249;42.626;23.320;2024-02-15T03:36:31;10.83;;;8.60;;
4472;SDS011;2249;42.626;23.320;2024-02-15T03:38:58;11.40;;;8.33;;
4472;SDS011;2249;42.626;23.320;2024-02-15T03:41:27;8.30;;;7.10;;
4472;SDS011;2249;42.626;23.320;2024-02-15T03:43:56;9.50;;;7.90;;
4472;SDS011;2249;42.626;23.320;2024-02-15T03:46:23;10.60;;;7.87;;
4472;SDS011;2249;42.626;23.320;2024-02-15T03:48:49;14.00;;;8.67;;
4472;SDS011;2249;42.626;23.320;2024-02-15T03:51:17;13.13;;;9.00;;
4472;SDS011;2249;42.626;23.320;2024-02-15T03:53:45;15.17;;;9.23;;
4472;SDS011;2249;42.626;23.320;2024-02-15T03:56:12;11.07;;;8.63;;
4472;SDS011;2249;42.626;23.320;2024-02-15T03:58:39;11.13;;;9.20;;
4472;SDS011;2249;42.626;23.320;2024-02-15T04:01:05;25.43;;;9.37;;
4472;SDS011;2249;42.626;23.320;2024-02-15T04:03:34;12.97;;;9.47;;
4472;SDS011;2249;42.626;23.320;2024-02-15T04:06:01;11.70;;;8.90;;
4472;SDS011;2249;42.626;23.320;2024-02-15T04:08:29;11.10;;;8.50;;
4472;SDS011;2249;42.626;23.320;2024-02-15T04:10:56;12.60;;;10.23;;
4472;SDS011;2249;42.626;23.320;2024-02-15T04:13:23;12.47;;;9.23;;
4472;SDS011;2249;42.626;23.320;2024-02-15T04:15:49;12.90;;;8.80;;
4472;SDS011;2249;42.626;23.320;2024-02-15T04:18:18;18.50;;;9.33;;
4472;SDS011;2249;42.626;23.320;2024-02-15T04:20:44;13.00;;;9.57;;
4472;SDS011;2249;42.626;23.320;2024-02-15T04:23:11;13.03;;;9.07;;
4472;SDS011;2249;42.626;23.320;2024-02-15T04:25:39;13.00;;;8.90;;
4472;SDS011;2249;42.626;23.320;2024-02-15T04:28:06;12.40;;;8.87;;
4472;SDS011;2249;42.626;23.320;2024-02-15T04:30:34;15.50;;;9.30;;
4472;SDS011;2249;42.626;23.320;2024-02-15T04:33:03;16.90;;;10.30;;
4472;SDS011;2249;42.626;23.320;2024-02-15T04:35:30;14.80;;;9.40;;
4472;SDS011;2249;42.626;23.320;2024-02-15T04:37:56;12.33;;;9.20;;
4472;SDS011;2249;42.626;23.320;2024-02-15T04:40:23;12.33;;;9.00;;
4472;SDS011;2249;42.626;23.320;2024-02-15T04:42:52;14.43;;;10.73;;
4472;SDS011;2249;42.626;23.320;2024-02-15T04:45:18;14.33;;;9.53;;
4472;SDS011;2249;42.626;23.320;2024-02-15T04:47:47;15.27;;;9.63;;
4472;SDS011;2249;42.626;23.320;2024-02-15T04:50:17;24.10;;;12.10;;
4472;SDS011;2249;42.626;23.320;2024-02-15T04:52:43;15.80;;;8.60;;
4472;SDS011;2249;42.626;23.320;2024-02-15T04:55:12;13.37;;;9.60;;
4472;SDS011;2249;42.626;23.320;2024-02-15T04:57:41;11.90;;;8.80;;
4472;SDS011;2249;42.626;23.320;2024-02-15T05:00:09;11.90;;;7.97;;
4472;SDS011;2249;42.626;23.320;2024-02-15T05:02:38;12.10;;;8.53;;
4472;SDS011;2249;42.626;23.320;2024-02-15T05:05:06;10.93;;;7.73;;
4472;SDS011;2249;42.626;23.320;2024-02-15T05:07:33;11.77;;;8.47;;
4472;SDS011;2249;42.626;23.320;2024-02-15T05:09:59;14.57;;;8.90;;
4472;SDS011;2249;42.626;23.320;2024-02-15T05:12:27;14.40;;;9.20;;
4472;SDS011;2249;42.626;23.320;2024-02-15T05:14:54;12.77;;;9.60;;
4472;SDS011;2249;42.626;23.320;2024-02-15T05:17:22;12.70;;;8.57;;
4472;SDS011;2249;42.626;23.320;2024-02-15T05:19:49;13.03;;;9.10;;
4472;SDS011;2249;42.626;23.320;2024-02-15T05:22:15;11.27;;;7.37;;
4472;SDS011;2249;42.626;23.320;2024-02-15T05:24:43;12.43;;;8.10;;
4472;SDS011;2249;42.626;23.320;2024-02-15T05:27:10;11.73;;;8.30;;
4472;SDS011;2249;42.626;23.320;2024-02-15T05:29:37;10.97;;;7.47;;
4472;SDS011;2249;42.626;23.320;2024-02-15T05:32:06;13.13;;;8.63;;
4472;SDS011;2249;42.626;23.320;2024-02-15T05:34:35;13.47;;;8.53;;
4472;SDS011;2249;42.626;23.320;2024-02-15T05:37:04;13.33;;;8.37;;
4472;SDS011;2249;42.626;23.320;2024-02-15T05:39:31;13.70;;;8.17;;
4472;SDS011;2249;42.626;23.320;2024-02-15T05:41:59;15.90;;;8.40;;
4472;SDS011;2249;42.626;23.320;2024-02-15T05:44:26;11.40;;;7.40;;
4472;SDS011;2249;42.626;23.320;2024-02-15T05:46:53;12.00;;;9.00;;
4472;SDS011;2249;42.626;23.320;2024-02-15T05:49:19;11.13;;;7.67;;
4472;SDS011;2249;42.626;23.320;2024-02-15T05:51:47;12.47;;;8.10;;
4472;SDS011;2249;42.626;23.320;2024-02-15T05:54:13;11.33;;;8.40;;
4472;SDS011;2249;42.626;23.320;2024-02-15T05:56:41;11.00;;;7.43;;
4472;SDS011;2249;42.626;23.320;2024-02-15T05:59:08;13.53;;;9.07;;
4472;SDS011;2249;42.626;23.320;2024-02-15T06:01:36;16.20;;;8.17;;
4472;SDS011;2249;42.626;23.320;2024-02-15T06:04:04;15.17;;;8.33;;
4472;SDS011;2249;42.626;23.320;2024-02-15T06:06:33;9.80;;;8.17;;
4472;SDS011;2249;42.626;23.320;2024-02-15T06:09:01;9.70;;;6.80;;
4472;SDS011;2249;42.626;23.320;2024-02-15T06:11:29;9.00;;;7.43;;
4472;SDS011;2249;42.626;23.320;2024-02-15T06:13:56;10.30;;;7.77;;
4472;SDS011;2249;42.626;23.320;2024-02-15T06:16:22;13.20;;;8.30;;
4472;SDS011;2249;42.626;23.320;2024-02-15T06:18:49;11.00;;;7.70;;
4472;SDS011;2249;42.626;23.320;2024-02-15T06:21:15;12.33;;;8.17;;
4472;SDS011;2249;42.626;23.320;2024-02-15T06:23:43;10.87;;;8.20;;
4472;SDS011;2249;42.626;23.320;2024-02-15T06:26:11;12.80;;;8.10;;
4472;SDS011;2249;42.626;23.320;2024-02-15T06:28:37;14.07;;;8.40;;
4472;SDS011;2249;42.626;23.320;2024-02-15T06:31:21;10.57;;;8.40;;
4472;SDS011;2249;42.626;23.320;2024-02-15T06:34:05;9.63;;;7.30;;
4472;SDS011;2249;42.626;23.320;2024-02-15T06:36:59;12.60;;;8.60;;
4472;SDS011;2249;42.626;23.320;2024-02-15T06:39:43;13.13;;;8.70;;
4472;SDS011;2249;42.626;23.320;2024-02-15T06:42:11;13.83;;;8.70;;
4472;SDS011;2249;42.626;23.320;2024-02-15T06:44:41;8.90;;;7.40;;
4472;SDS011;2249;42.626;23.320;2024-02-15T06:47:07;11.27;;;7.50;;
4472;SDS011;2249;42.626;23.320;2024-02-15T06:49:35;13.57;;;8.47;;
4472;SDS011;2249;42.626;23.320;2024-02-15T06:52:04;12.17;;;7.70;;
4472;SDS011;2249;42.626;23.320;2024-02-15T06:54:32;12.07;;;8.43;;
4472;SDS011;2249;42.626;23.320;2024-02-15T06:56:58;15.73;;;8.90;;
4472;SDS011;2249;42.626;23.320;2024-02-15T06:59:26;19.13;;;8.20;;
4472;SDS011;2249;42.626;23.320;2024-02-15T07:01:53;11.83;;;7.63;;
4472;SDS011;2249;42.626;23.320;2024-02-15T07:04:20;14.50;;;7.93;;
4472;SDS011;2249;42.626;23.320;2024-02-15T07:06:46;9.70;;;7.57;;
4472;SDS011;2249;42.626;23.320;2024-02-15T07:09:14;12.97;;;8.33;;
4472;SDS011;2249;42.626;23.320;2024-02-15T07:11:43;13.13;;;8.93;;
4472;SDS011;2249;42.626;23.320;2024-02-15T07:14:09;18.07;;;8.57;;
4472;SDS011;2249;42.626;23.320;2024-02-15T07:16:37;11.20;;;8.40;;
4472;SDS011;2249;42.626;23.320;2024-02-15T07:19:03;12.00;;;8.45;;
4472;SDS011;2249;42.626;23.320;2024-02-15T07:21:30;11.77;;;8.27;;
4472;SDS011;2249;42.626;23.320;2024-02-15T07:23:57;11.60;;;8.20;;
4472;SDS011;2249;42.626;23.320;2024-02-15T07:26:24;19.67;;;8.50;;
4472;SDS011;2249;42.626;23.320;2024-02-15T07:28:51;10.80;;;8.33;;
4472;SDS011;2249;42.626;23.320;2024-02-15T07:31:18;10.13;;;7.60;;
4472;SDS011;2249;42.626;23.320;2024-02-15T07:33:47;11.30;;;7.77;;
4472;SDS011;2249;42.626;23.320;2024-02-15T07:36:17;12.00;;;7.87;;
4472;SDS011;2249;42.626;23.320;2024-02-15T07:38:44;12.07;;;7.47;;
4472;SDS011;2249;42.626;23.320;2024-02-15T07:41:10;9.43;;;6.43;;
4472;SDS011;2249;42.626;23.320;2024-02-15T07:43:38;13.07;;;8.17;;
4472;SDS011;2249;42.626;23.320;2024-02-15T07:46:04;10.20;;;7.50;;
4472;SDS011;2249;42.626;23.320;2024-02-15T07:48:31;10.80;;;7.50;;
4472;SDS011;2249;42.626;23.320;2024-02-15T07:50:59;13.20;;;7.67;;
4472;SDS011;2249;42.626;23.320;2024-02-15T07:53:26;11.00;;;7.50;;
4472;SDS011;2249;42.626;23.320;2024-02-15T07:55:52;12.10;;;8.27;;
4472;SDS011;2249;42.626;23.320;2024-02-15T07:58:19;9.23;;;7.17;;
4472;SDS011;2249;42.626;23.320;2024-02-15T08:00:46;10.27;;;8.10;;
4472;SDS011;2249;42.626;23.320;2024-02-15T08:03:12;11.10;;;6.57;;
4472;SDS011;2249;42.626;23.320;2024-02-15T08:05:39;10.70;;;8.23;;
4472;SDS011;2249;42.626;23.320;2024-02-15T08:08:08;10.77;;;7.27;;
4472;SDS011;2249;42.626;23.320;2024-02-15T08:10:34;13.93;;;7.83;;
4472;SDS011;2249;42.626;23.320;2024-02-15T08:13:00;10.93;;;7.57;;
4472;SDS011;2249;42.626;23.320;2024-02-15T08:15:27;13.27;;;8.40;;
4472;SDS011;2249;42.626;23.320;2024-02-15T08:17:53;10.63;;;7.60;;
4472;SDS011;2249;42.626;23.320;2024-02-15T08:20:20;9.80;;;7.20;;
4472;SDS011;2249;42.626;23.320;2024-02-15T08:22:47;10.70;;;7.50;;
4472;SDS011;2249;42.626;23.320;2024-02-15T08:25:15;13.43;;;7.67;;
4472;SDS011;2249;42.626;23.320;2024-02-15T08:27:43;13.80;;;8.17;;
4472;SDS011;2249;42.626;23.320;2024-02-15T08:30:10;22.43;;;9.07;;
4472;SDS011;2249;42.626;23.320;2024-02-15T08:32:37;13.17;;;8.37;;
4472;SDS011;2249;42.626;23.320;2024-02-15T08:35:05;16.03;;;9.47;;
4472;SDS011;2249;42.626;23.320;2024-02-15T08:37:31;11.80;;;8.47;;
4472;SDS011;2249;42.626;23.320;2024-02-15T08:39:59;12.80;;;8.23;;
4472;SDS011;2249;42.626;23.320;2024-02-15T08:42:27;11.33;;;7.70;;
4472;SDS011;2249;42.626;23.320;2024-02-15T08:44:53;11.47;;;8.50;;
4472;SDS011;2249;42.626;23.320;2024-02-15T08:47:20;12.23;;;8.23;;
4472;SDS011;2249;42.626;23.320;2024-02-15T08:49:47;9.87;;;7.60;;
4472;SDS011;2249;42.626;23.320;2024-02-15T08:52:13;9.73;;;7.67;;
4472;SDS011;2249;42.626;23.320;2024-02-15T08:54:40;11.60;;;7.80;;
4472;SDS011;2249;42.626;23.320;2024-02-15T08:57:06;11.60;;;7.80;;
4472;SDS011;2249;42.626;23.320;2024-02-15T08:59:34;9.40;;;7.20;;
4472;SDS011;2249;42.626;23.320;2024-02-15T09:02:01;13.63;;;7.70;;
4472;SDS011;2249;42.626;23.320;2024-02-15T09:04:28;12.33;;;8.20;;
4472;SDS011;2249;42.626;23.320;2024-02-15T09:06:54;11.27;;;7.67;;
4472;SDS011;2249;42.626;23.320;2024-02-15T09:09:21;12.57;;;8.87;;
4472;SDS011;2249;42.626;23.320;2024-02-15T09:11:47;11.50;;;8.30;;
4472;SDS011;2249;42.626;23.320;2024-02-15T09:14:14;14.03;;;8.03;;
4472;SDS011;2249;42.626;23.320;2024-02-15T09:16:42;14.07;;;7.73;;
4472;SDS011;2249;42.626;23.320;2024-02-15T09:19:08;10.90;;;8.40;;
4472;SDS011;2249;42.626;23.320;2024-02-15T09:21:35;15.00;;;8.53;;
4472;SDS011;2249;42.626;23.320;2024-02-15T09:24:02;10.80;;;8.07;;
4472;SDS011;2249;42.626;23.320;2024-02-15T09:26:28;11.53;;;8.70;;
4472;SDS011;2249;42.626;23.320;2024-02-15T09:28:55;19.13;;;9.47;;
4472;SDS011;2249;42.626;23.320;2024-02-15T09:31:21;19.80;;;11.47;;
4472;SDS011;2249;42.626;23.320;2024-02-15T09:33:51;14.17;;;8.80;;
4472;SDS011;2249;42.626;23.320;2024-02-15T09:36:17;14.47;;;8.77;;
4472;SDS011;2249;42.626;23.320;2024-02-15T09:38:44;13.47;;;9.10;;
4472;SDS011;2249;42.626;23.320;2024-02-15T09:41:11;11.10;;;9.50;;
4472;SDS011;2249;42.626;23.320;2024-02-15T09:43:38;13.00;;;9.63;;
4472;SDS011;2249;42.626;23.320;2024-02-15T09:46:04;13.10;;;8.37;;
4472;SDS011;2249;42.626;23.320;2024-02-15T09:48:31;14.07;;;9.10;;
4472;SDS011;2249;42.626;23.320;2024-02-15T09:50:59;14.77;;;8.63;;
4472;SDS011;2249;42.626;23.320;2024-02-15T09:53:27;12.53;;;8.50;;
4472;SDS011;2249;42.626;23.320;2024-02-15T09:55:54;12.00;;;8.60;;
4472;SDS011;2249;42.626;23.320;2024-02-15T09:58:21;12.33;;;8.80;;
4472;SDS011;2249;42.626;23.320;2024-02-15T10:00:48;13.73;;;9.00;;
4472;SDS011;2249;42.626;23.320;2024-02-15T10:03:16;11.73;;;7.57;;
4472;SDS011;2249;42.626;23.320;2024-02-15T10:05:44;12.10;;;9.20;;
4472;SDS011;2249;42.626;23.320;2024-02-15T10:08:12;14.37;;;8.97;;
4472;SDS011;2249;42.626;23.320;2024-02-15T10:10:38;14.37;;;9.33;;
4472;SDS011;2249;42.626;23.320;2024-02-15T10:13:05;10.83;;;7.97;;
4472;SDS011;2249;42.626;23.320;2024-02-15T10:15:33;12.43;;;9.03;;
4472;SDS011;2249;42.626;23.320;2024-02-15T10:18:00;14.07;;;9.90;;
4472;SDS011;2249;42.626;23.320;2024-02-15T10:20:27;11.87;;;8.53;;
4472;SDS011;2249;42.626;23.320;2024-02-15T10:22:58;12.90;;;8.88;;
4472;SDS011;2249;42.626;23.320;2024-02-15T10:25:36;15.40;;;9.40;;
4472;SDS011;2249;42.626;23.320;2024-02-15T10:28:03;11.82;;;9.32;;
4472;SDS011;2249;42.626;23.320;2024-02-15T10:30:32;13.50;;;9.00;;
4472;SDS011;2249;42.626;23.320;2024-02-15T10:32:58;15.43;;;10.13;;
4472;SDS011;2249;42.626;23.320;2024-02-15T10:35:25;13.57;;;8.73;;
4472;SDS011;2249;42.626;23.320;2024-02-15T10:37:51;18.73;;;11.15;;
4472;SDS011;2249;42.626;23.320;2024-02-15T10:40:18;13.27;;;8.98;;
4472;SDS011;2249;42.626;23.320;2024-02-15T10:42:46;12.65;;;9.73;;
4472;SDS011;2249;42.626;23.320;2024-02-15T10:45:13;15.45;;;9.90;;
4472;SDS011;2249;42.626;23.320;2024-02-15T10:47:43;15.27;;;9.37;;
4472;SDS011;2249;42.626;23.320;2024-02-15T10:50:10;12.53;;;8.93;;
4472;SDS011;2249;42.626;23.320;2024-02-15T10:52:37;11.90;;;9.10;;
4472;SDS011;2249;42.626;23.320;2024-02-15T10:55:08;13.97;;;10.13;;
4472;SDS011;2249;42.626;23.320;2024-02-15T10:57:39;14.88;;;9.55;;
4472;SDS011;2249;42.626;23.320;2024-02-15T11:00:11;13.23;;;9.23;;
4472;SDS011;2249;42.626;23.320;2024-02-15T11:02:46;13.20;;;9.55;;
4472;SDS011;2249;42.626;23.320;2024-02-15T11:05:16;10.27;;;8.47;;
4472;SDS011;2249;42.626;23.320;2024-02-15T11:07:46;12.30;;;8.00;;
4472;SDS011;2249;42.626;23.320;2024-02-15T11:10:12;13.37;;;9.20;;
4472;SDS011;2249;42.626;23.320;2024-02-15T11:12:42;14.83;;;9.13;;
4472;SDS011;2249;42.626;23.320;2024-02-15T11:15:09;15.00;;;9.47;;
4472;SDS011;2249;42.626;23.320;2024-02-15T11:17:48;13.03;;;9.00;;
4472;SDS011;2249;42.626;23.320;2024-02-15T11:23:01;11.85;;;8.10;;
4472;SDS011;2249;42.626;23.320;2024-02-15T11:25:31;10.00;;;8.00;;
4472;SDS011;2249;42.626;23.320;2024-02-15T11:27:59;13.13;;;7.80;;
4472;SDS011;2249;42.626;23.320;2024-02-15T11:30:45;12.37;;;7.63;;
4472;SDS011;2249;42.626;23.320;2024-02-15T11:33:25;13.37;;;7.17;;
4472;SDS011;2249;42.626;23.320;2024-02-15T11:36:01;12.57;;;8.60;;
4472;SDS011;2249;42.626;23.320;2024-02-15T11:38:28;8.87;;;6.87;;
4472;SDS011;2249;42.626;23.320;2024-02-15T11:41:01;10.90;;;7.77;;
4472;SDS011;2249;42.626;23.320;2024-02-15T11:43:47;13.60;;;8.45;;
4472;SDS011;2249;42.626;23.320;2024-02-15T11:46:20;9.27;;;7.10;;
4472;SDS011;2249;42.626;23.320;2024-02-15T11:48:48;8.10;;;6.83;;
4472;SDS011;2249;42.626;23.320;2024-02-15T11:51:24;10.38;;;7.68;;
4472;SDS011;2249;42.626;23.320;2024-02-15T11:53:57;9.43;;;6.43;;
4472;SDS011;2249;42.626;23.320;2024-02-15T11:56:24;11.30;;;7.80;;
4472;SDS011;2249;42.626;23.320;2024-02-15T11:59:01;15.05;;;7.10;;
4472;SDS011;2249;42.626;23.320;2024-02-15T12:01:27;7.83;;;6.17;;
4472;SDS011;2249;42.626;23.320;2024-02-15T12:04:13;8.90;;;7.20;;
4472;SDS011;2249;42.626;23.320;2024-02-15T12:06:57;14.40;;;9.40;;
4472;SDS011;2249;42.626;23.320;2024-02-15T12:09:41;10.40;;;7.27;;
4472;SDS011;2249;42.626;23.320;2024-02-15T12:12:25;10.90;;;6.87;;
4472;SDS011;2249;42.626;23.320;2024-02-15T12:15:09;7.83;;;6.20;;
4472;SDS011;2249;42.626;23.320;2024-02-15T12:17:53;12.53;;;6.80;;
4472;SDS011;2249;42.626;23.320;2024-02-15T12:20:39;10.80;;;6.47;;
4472;SDS011;2249;42.626;23.320;2024-02-15T12:23:05;7.83;;;5.77;;
4472;SDS011;2249;42.626;23.320;2024-02-15T12:25:32;13.17;;;6.60;;
4472;SDS011;2249;42.626;23.320;2024-02-15T12:28:01;8.57;;;5.97;;
4472;SDS011;2249;42.626;23.320;2024-02-15T12:30:32;11.47;;;6.10;;
4472;SDS011;2249;42.626;23.320;2024-02-15T12:33:08;8.57;;;5.67;;
4472;SDS011;2249;42.626;23.320;2024-02-15T12:35:35;10.00;;;5.90;;
4472;SDS011;2249;42.626;23.320;2024-02-15T12:38:04;10.40;;;6.37;;
4472;SDS011;2249;42.626;23.320;2024-02-15T12:40:31;8.60;;;6.67;;
4472;SDS011;2249;42.626;23.320;2024-02-15T12:42:58;9.93;;;6.40;;
4472;SDS011;2249;42.626;23.320;2024-02-15T12:45:25;7.67;;;6.87;;
4472;SDS011;2249;42.626;23.320;2024-02-15T12:47:53;7.53;;;6.20;;
4472;SDS011;2249;42.626;23.320;2024-02-15T12:50:20;8.93;;;6.78;;
4472;SDS011;2249;42.626;23.320;2024-02-15T12:52:48;10.20;;;7.30;;
4472;SDS011;2249;42.626;23.320;2024-02-15T12:55:16;9.70;;;7.00;;
4472;SDS011;2249;42.626;23.320;2024-02-15T12:57:45;10.07;;;7.10;;
4472;SDS011;2249;42.626;23.320;2024-02-15T13:00:14;8.60;;;7.67;;
4472;SDS011;2249;42.626;23.320;2024-02-15T13:02:44;11.30;;;6.97;;
4472;SDS011;2249;42.626;23.320;2024-02-15T13:05:10;10.23;;;6.20;;
4472;SDS011;2249;42.626;23.320;2024-02-15T13:07:37;14.98;;;7.18;;
4472;SDS011;2249;42.626;23.320;2024-02-15T13:10:05;8.30;;;6.90;;
4472;SDS011;2249;42.626;23.320;2024-02-15T13:12:34;11.27;;;6.85;;
4472;SDS011;2249;42.626;23.320;2024-02-15T13:15:01;7.83;;;6.27;;
4472;SDS011;2249;42.626;23.320;2024-02-15T13:17:29;7.13;;;5.40;;
4472;SDS011;2249;42.626;23.320;2024-02-15T13:19:56;12.00;;;6.50;;
4472;SDS011;2249;42.626;23.320;2024-02-15T13:22:28;10.07;;;6.20;;
4472;SDS011;2249;42.626;23.320;2024-02-15T13:24:54;8.80;;;6.83;;
4472;SDS011;2249;42.626;23.320;2024-02-15T13:27:21;9.40;;;6.30;;
4472;SDS011;2249;42.626;23.320;2024-02-15T13:29:49;13.60;;;8.93;;
4472;SDS011;2249;42.626;23.320;2024-02-15T13:32:16;14.70;;;7.60;;
4472;SDS011;2249;42.626;23.320;2024-02-15T13:34:46;9.60;;;7.10;;
4472;SDS011;2249;42.626;23.320;2024-02-15T13:37:16;11.27;;;7.22;;
4472;SDS011;2249;42.626;23.320;2024-02-15T13:39:42;8.37;;;6.30;;
4472;SDS011;2249;42.626;23.320;2024-02-15T13:42:11;7.70;;;6.50;;
4472;SDS011;2249;42.626;23.320;2024-02-15T13:44:37;10.13;;;6.80;;
4472;SDS011;2249;42.626;23.320;2024-02-15T13:47:05;16.00;;;7.07;;
4472;SDS011;2249;42.626;23.320;2024-02-15T13:49:32;7.85;;;6.82;;
4472;SDS011;2249;42.626;23.320;2024-02-15T13:51:59;7.70;;;5.87;;
4472;SDS011;2249;42.626;23.320;2024-02-15T13:54:28;12.73;;;7.43;;
4472;SDS011;2249;42.626;23.320;2024-02-15T13:56:54;8.93;;;6.93;;
4472;SDS011;2249;42.626;23.320;2024-02-15T13:59:21;8.13;;;6.50;;
4472;SDS011;2249;42.626;23.320;2024-02-15T14:01:48;8.13;;;5.43;;
4472;SDS011;2249;42.626;23.320;2024-02-15T14:04:16;13.93;;;6.47;;
4472;SDS011;2249;42.626;23.320;2024-02-15T14:06:42;11.80;;;7.03;;
4472;SDS011;2249;42.626;23.320;2024-02-15T14:09:10;10.25;;;7.20;;
4472;SDS011;2249;42.626;23.320;2024-02-15T14:11:37;9.20;;;6.00;;
4472;SDS011;2249;42.626;23.320;2024-02-15T14:14:04;7.63;;;5.40;;
4472;SDS011;2249;42.626;23.320;2024-02-15T14:16:30;8.20;;;6.13;;
4472;SDS011;2249;42.626;23.320;2024-02-15T14:18:59;7.10;;;5.80;;
4472;SDS011;2249;42.626;23.320;2024-02-15T14:21:30;6.77;;;6.07;;
4472;SDS011;2249;42.626;23.320;2024-02-15T14:23:58;9.83;;;6.70;;
4472;SDS011;2249;42.626;23.320;2024-02-15T14:26:24;10.27;;;6.20;;
4472;SDS011;2249;42.626;23.320;2024-02-15T14:28:53;9.23;;;6.50;;
4472;SDS011;2249;42.626;23.320;2024-02-15T14:31:20;9.27;;;7.15;;
4472;SDS011;2249;42.626;23.320;2024-02-15T14:34:04;18.40;;;5.80;;
4472;SDS011;2249;42.626;23.320;2024-02-15T14:36:31;10.18;;;6.05;;
4472;SDS011;2249;42.626;23.320;2024-02-15T14:38:59;11.00;;;6.10;;
4472;SDS011;2249;42.626;23.320;2024-02-15T14:41:26;6.10;;;5.40;;
4472;SDS011;2249;42.626;23.320;2024-02-15T14:43:53;8.13;;;5.10;;
4472;SDS011;2249;42.626;23.320;2024-02-15T14:46:19;8.77;;;6.30;;
4472;SDS011;2249;42.626;23.320;2024-02-15T14:48:46;9.70;;;6.47;;
4472;SDS011;2249;42.626;23.320;2024-02-15T14:51:14;12.83;;;7.50;;
4472;SDS011;2249;42.626;23.320;2024-02-15T14:53:42;6.47;;;5.83;;
4472;SDS011;2249;42.626;23.320;2024-02-15T14:56:09;10.63;;;7.03;;
4472;SDS011;2249;42.626;23.320;2024-02-15T14:58:35;9.40;;;6.93;;